sensor_id;sensor_type;location;lat;lon;timestamp;pressure;altitude;pressure_sealevel;temperature;humidity
42771;BME280;28426;42.872;25.314;2023-02-12T00:00:47;97920.13;;;-7.15;83.06
42771;BME280;28426;42.872;25.314;2023-02-12T00:03:18;97924.50;;;-7.17;83.13
42771;BME280;28426;42.872;25.314;2023-02-12T00:05:49;97928.00;;;-7.18;83.76
42771;BME280;28426;42.872;25.314;2023-02-12T00:08:20;97919.31;;;-7.17;83.75
42771;BME280;28426;42.872;25.314;2023-02-12T00:10:50;97926.22;;;-7.16;83.11
42771;BME280;28426;42.872;25.314;2023-02-12T00:13:24;97924.84;;;-7.27;80.87
42771;BME280;28426;42.872;25.314;2023-02-12T00:15:54;97918.69;;;-7.50;78.47
42771;BME280;28426;42.872;25.314;2023-02-12T00:18:25;97916.25;;;-7.80;77.59
42771;BME280;28426;42.872;25.314;2023-02-12T00:20:58;97917.19;;;-8.09;77.73
42771;BME280;28426;42.872;25.314;2023-02-12T00:23:29;97918.81;;;-8.35;77.80
42771;BME280;28426;42.872;25.314;2023-02-12T00:26:04;97917.78;;;-8.57;77.88
42771;BME280;28426;42.872;25.314;2023-02-12T00:28:37;97921.69;;;-8.73;79.38
42771;BME280;28426;42.872;25.314;2023-02-12T00:31:10;97929.63;;;-8.80;80.71
42771;BME280;28426;42.872;25.314;2023-02-12T00:33:41;97925.38;;;-8.82;81.43
42771;BME280;28426;42.872;25.314;2023-02-12T00:36:14;97923.69;;;-8.83;81.18
42771;BME280;28426;42.872;25.314;2023-02-12T00:38:46;97923.72;;;-8.85;81.52
42771;BME280;28426;42.872;25.314;2023-02-12T00:41:17;97914.34;;;-8.89;80.82
42771;BME280;28426;42.872;25.314;2023-02-12T00:43:50;97914.53;;;-8.95;80.59
42771;BME280;28426;42.872;25.314;2023-02-12T00:46:21;97923.31;;;-9.01;80.82
42771;BME280;28426;42.872;25.314;2023-02-12T00:48:51;97920.88;;;-9.06;81.10
42771;BME280;28426;42.872;25.314;2023-02-12T00:51:22;97924.38;;;-9.08;80.89
42771;BME280;28426;42.872;25.314;2023-02-12T00:53:53;97929.66;;;-9.13;80.89
42771;BME280;28426;42.872;25.314;2023-02-12T00:56:24;97923.69;;;-9.15;81.29
42771;BME280;28426;42.872;25.314;2023-02-12T00:58:57;97925.41;;;-9.14;81.60
42771;BME280;28426;42.872;25.314;2023-02-12T01:01:28;97919.38;;;-9.14;81.55
42771;BME280;28426;42.872;25.314;2023-02-12T01:03:59;97917.63;;;-9.14;81.90
42771;BME280;28426;42.872;25.314;2023-02-12T01:06:29;97916.16;;;-8.91;89.80
42771;BME280;28426;42.872;25.314;2023-02-12T01:09:00;97915.47;;;-8.66;89.14
42771;BME280;28426;42.872;25.314;2023-02-12T01:11:31;97902.63;;;-8.42;88.83
42771;BME280;28426;42.872;25.314;2023-02-12T01:14:04;97906.34;;;-8.22;88.54
42771;BME280;28426;42.872;25.314;2023-02-12T01:16:35;97905.66;;;-8.01;88.39
42771;BME280;28426;42.872;25.314;2023-02-12T01:19:06;97908.50;;;-7.81;87.96
42771;BME280;28426;42.872;25.314;2023-02-12T01:21:37;97908.81;;;-7.64;87.30
42771;BME280;28426;42.872;25.314;2023-02-12T01:24:09;97901.34;;;-7.47;86.80
42771;BME280;28426;42.872;25.314;2023-02-12T01:26:39;97899.97;;;-7.32;86.53
42771;BME280;28426;42.872;25.314;2023-02-12T01:29:12;97889.09;;;-7.18;85.81
42771;BME280;28426;42.872;25.314;2023-02-12T01:31:43;97892.19;;;-7.07;85.22
42771;BME280;28426;42.872;25.314;2023-02-12T01:34:14;97881.41;;;-6.96;84.17
42771;BME280;28426;42.872;25.314;2023-02-12T01:36:45;97881.97;;;-6.88;83.57
42771;BME280;28426;42.872;25.314;2023-02-12T01:39:16;97886.88;;;-6.80;83.24
42771;BME280;28426;42.872;25.314;2023-02-12T01:41:46;97885.81;;;-6.74;82.28
42771;BME280;28426;42.872;25.314;2023-02-12T01:44:21;97881.41;;;-6.72;82.29
42771;BME280;28426;42.872;25.314;2023-02-12T01:46:55;97881.28;;;-6.69;82.16
42771;BME280;28426;42.872;25.314;2023-02-12T01:49:29;97880.28;;;-6.65;81.72
42771;BME280;28426;42.872;25.314;2023-02-12T01:52:04;97880.19;;;-6.63;81.39
42771;BME280;28426;42.872;25.314;2023-02-12T01:54:36;97878.34;;;-6.60;81.28
42771;BME280;28426;42.872;25.314;2023-02-12T01:57:08;97871.38;;;-6.59;81.05
42771;BME280;28426;42.872;25.314;2023-02-12T01:59:44;97872.19;;;-6.57;81.01
42771;BME280;28426;42.872;25.314;2023-02-12T02:02:17;97867.91;;;-6.58;80.42
42771;BME280;28426;42.872;25.314;2023-02-12T02:04:50;97852.38;;;-6.60;80.41
42771;BME280;28426;42.872;25.314;2023-02-12T02:07:23;97859.31;;;-6.60;80.17
42771;BME280;28426;42.872;25.314;2023-02-12T02:09:54;97866.31;;;-6.62;80.12
42771;BME280;28426;42.872;25.314;2023-02-12T02:12:30;97865.56;;;-6.66;79.75
42771;BME280;28426;42.872;25.314;2023-02-12T02:15:18;97862.22;;;-6.68;79.64
42771;BME280;28426;42.872;25.314;2023-02-12T02:17:53;97858.88;;;-6.72;80.85
42771;BME280;28426;42.872;25.314;2023-02-12T02:21:00;97861.03;;;-6.83;84.00
42771;BME280;28426;42.872;25.314;2023-02-12T02:23:58;97861.38;;;-6.92;81.34
42771;BME280;28426;42.872;25.314;2023-02-12T02:27:00;97857.78;;;-7.12;81.76
42771;BME280;28426;42.872;25.314;2023-02-12T02:32:35;97860.56;;;-7.42;83.27
42771;BME280;28426;42.872;25.314;2023-02-12T02:35:11;97851.41;;;-7.53;83.40
42771;BME280;28426;42.872;25.314;2023-02-12T02:37:48;97858.47;;;-7.58;83.59
42771;BME280;28426;42.872;25.314;2023-02-12T02:40:19;97858.66;;;-7.63;84.04
42771;BME280;28426;42.872;25.314;2023-02-12T02:42:56;97855.31;;;-7.66;83.93
42771;BME280;28426;42.872;25.314;2023-02-12T02:45:33;97849.50;;;-7.73;84.99
42771;BME280;28426;42.872;25.314;2023-02-12T02:48:11;97847.75;;;-7.72;84.89
42771;BME280;28426;42.872;25.314;2023-02-12T02:50:47;97853.59;;;-7.67;85.05
42771;BME280;28426;42.872;25.314;2023-02-12T02:53:22;97845.91;;;-7.69;84.88
42771;BME280;28426;42.872;25.314;2023-02-12T02:55:58;97847.44;;;-7.63;84.92
42771;BME280;28426;42.872;25.314;2023-02-12T02:58:33;97849.91;;;-7.60;85.04
42771;BME280;28426;42.872;25.314;2023-02-12T03:01:08;97845.50;;;-7.58;85.41
42771;BME280;28426;42.872;25.314;2023-02-12T03:03:43;97848.00;;;-7.55;85.10
42771;BME280;28426;42.872;25.314;2023-02-12T03:06:19;97840.13;;;-7.52;85.60
42771;BME280;28426;42.872;25.314;2023-02-12T03:08:56;97842.63;;;-7.49;86.14
42771;BME280;28426;42.872;25.314;2023-02-12T03:11:29;97852.88;;;-7.45;85.22
42771;BME280;28426;42.872;25.314;2023-02-12T03:14:05;97845.00;;;-7.42;85.42
42771;BME280;28426;42.872;25.314;2023-02-12T03:16:39;97839.00;;;-7.44;85.26
42771;BME280;28426;42.872;25.314;2023-02-12T03:19:18;97843.38;;;-7.45;85.48
42771;BME280;28426;42.872;25.314;2023-02-12T03:21:53;97845.22;;;-7.49;85.49
42771;BME280;28426;42.872;25.314;2023-02-12T03:24:30;97842.50;;;-7.45;85.60
42771;BME280;28426;42.872;25.314;2023-02-12T03:27:06;97842.50;;;-7.45;85.39
42771;BME280;28426;42.872;25.314;2023-02-12T03:29:38;97838.13;;;-7.43;85.90
42771;BME280;28426;42.872;25.314;2023-02-12T03:32:28;97833.72;;;-7.41;86.23
42771;BME280;28426;42.872;25.314;2023-02-12T03:35:09;97836.22;;;-7.38;86.25
42771;BME280;28426;42.872;25.314;2023-02-12T03:37:51;97830.94;;;-7.35;86.02
42771;BME280;28426;42.872;25.314;2023-02-12T03:40:31;97822.97;;;-7.30;86.20
42771;BME280;28426;42.872;25.314;2023-02-12T03:43:06;97813.22;;;-7.24;86.62
42771;BME280;28426;42.872;25.314;2023-02-12T03:45:42;97818.13;;;-7.16;86.39
42771;BME280;28426;42.872;25.314;2023-02-12T03:48:20;97808.50;;;-7.12;86.44
42771;BME280;28426;42.872;25.314;2023-02-12T03:50:56;97818.53;;;-7.03;86.38
42771;BME280;28426;42.872;25.314;2023-02-12T03:53:28;97821.69;;;-6.94;86.94
42771;BME280;28426;42.872;25.314;2023-02-12T03:56:03;97818.06;;;-6.68;92.87
42771;BME280;28426;42.872;25.314;2023-02-12T03:58:36;97815.66;;;-6.50;91.62
42771;BME280;28426;42.872;25.314;2023-02-12T04:01:08;97812.81;;;-6.22;89.99
42771;BME280;28426;42.872;25.314;2023-02-12T04:03:39;97809.31;;;-6.00;83.83
42771;BME280;28426;42.872;25.314;2023-02-12T04:06:22;97813.25;;;-5.91;80.71
42771;BME280;28426;42.872;25.314;2023-02-12T04:08:55;97812.16;;;-5.85;80.99
42771;BME280;28426;42.872;25.314;2023-02-12T04:11:31;97817.94;;;-5.79;81.61
42771;BME280;28426;42.872;25.314;2023-02-12T04:14:14;97814.75;;;-5.65;80.78
42771;BME280;28426;42.872;25.314;2023-02-12T04:16:50;97807.34;;;-5.53;80.07
42771;BME280;28426;42.872;25.314;2023-02-12T04:19:29;97812.84;;;-5.40;78.74
42771;BME280;28426;42.872;25.314;2023-02-12T04:22:14;97821.19;;;-5.13;80.23
42771;BME280;28426;42.872;25.314;2023-02-12T04:24:56;97824.50;;;-4.90;78.13
42771;BME280;28426;42.872;25.314;2023-02-12T04:27:35;97823.31;;;-4.82;76.12
42771;BME280;28426;42.872;25.314;2023-02-12T04:30:17;97823.44;;;-4.86;75.98
42771;BME280;28426;42.872;25.314;2023-02-12T04:32:52;97844.00;;;-4.79;76.65
42771;BME280;28426;42.872;25.314;2023-02-12T04:35:27;97838.22;;;-4.67;76.77
42771;BME280;28426;42.872;25.314;2023-02-12T04:38:07;97833.22;;;-4.52;73.40
42771;BME280;28426;42.872;25.314;2023-02-12T04:40:40;97826.75;;;-4.63;71.04
42771;BME280;28426;42.872;25.314;2023-02-12T04:43:11;97824.16;;;-4.82;73.01
42771;BME280;28426;42.872;25.314;2023-02-12T04:45:41;97827.25;;;-4.93;74.43
42771;BME280;28426;42.872;25.314;2023-02-12T04:48:12;97831.69;;;-4.76;76.89
42771;BME280;28426;42.872;25.314;2023-02-12T04:50:43;97829.78;;;-4.53;75.31
42771;BME280;28426;42.872;25.314;2023-02-12T04:53:16;97835.94;;;-4.36;74.48
42771;BME280;28426;42.872;25.314;2023-02-12T04:55:46;97833.66;;;-4.25;73.68
42771;BME280;28426;42.872;25.314;2023-02-12T04:58:17;97831.03;;;-4.05;72.66
42771;BME280;28426;42.872;25.314;2023-02-12T05:00:48;97838.69;;;-3.85;72.29
42771;BME280;28426;42.872;25.314;2023-02-12T05:03:18;97829.38;;;-3.55;70.37
42771;BME280;28426;42.872;25.314;2023-02-12T05:05:49;97836.91;;;-3.31;70.43
42771;BME280;28426;42.872;25.314;2023-02-12T05:08:22;97848.56;;;-3.05;68.24
42771;BME280;28426;42.872;25.314;2023-02-12T05:10:53;97858.31;;;-2.91;68.27
42771;BME280;28426;42.872;25.314;2023-02-12T05:13:23;97870.78;;;-2.80;67.92
42771;BME280;28426;42.872;25.314;2023-02-12T05:15:54;97867.06;;;-2.76;67.87
42771;BME280;28426;42.872;25.314;2023-02-12T05:18:25;97874.16;;;-2.78;67.38
42771;BME280;28426;42.872;25.314;2023-02-12T05:20:56;97883.16;;;-2.83;67.99
42771;BME280;28426;42.872;25.314;2023-02-12T05:23:31;97888.31;;;-2.82;67.81
42771;BME280;28426;42.872;25.314;2023-02-12T05:26:03;97900.28;;;-2.78;67.33
42771;BME280;28426;42.872;25.314;2023-02-12T05:28:33;97899.91;;;-2.87;68.19
42771;BME280;28426;42.872;25.314;2023-02-12T05:31:06;97905.94;;;-3.03;67.13
42771;BME280;28426;42.872;25.314;2023-02-12T05:33:37;97898.94;;;-3.03;69.26
42771;BME280;28426;42.872;25.314;2023-02-12T05:36:10;97901.25;;;-2.96;69.65
42771;BME280;28426;42.872;25.314;2023-02-12T05:38:44;97896.03;;;-2.96;69.66
42771;BME280;28426;42.872;25.314;2023-02-12T05:41:16;97910.50;;;-3.07;68.82
42771;BME280;28426;42.872;25.314;2023-02-12T05:43:48;97917.28;;;-3.20;68.14
42771;BME280;28426;42.872;25.314;2023-02-12T05:46:20;97918.63;;;-3.31;68.84
42771;BME280;28426;42.872;25.314;2023-02-12T05:48:51;97921.56;;;-3.37;69.23
42771;BME280;28426;42.872;25.314;2023-02-12T05:51:24;97920.97;;;-3.42;69.29
42771;BME280;28426;42.872;25.314;2023-02-12T05:53:59;97920.19;;;-3.44;70.22
42771;BME280;28426;42.872;25.314;2023-02-12T05:56:31;97920.25;;;-3.46;70.61
42771;BME280;28426;42.872;25.314;2023-02-12T05:59:04;97932.47;;;-3.46;69.63
42771;BME280;28426;42.872;25.314;2023-02-12T06:01:38;97929.84;;;-3.46;70.34
42771;BME280;28426;42.872;25.314;2023-02-12T06:04:13;97935.91;;;-3.46;70.96
42771;BME280;28426;42.872;25.314;2023-02-12T06:06:44;97943.84;;;-3.47;70.43
42771;BME280;28426;42.872;25.314;2023-02-12T06:09:17;97947.19;;;-3.45;71.89
42771;BME280;28426;42.872;25.314;2023-02-12T06:11:48;97954.34;;;-3.49;72.09
42771;BME280;28426;42.872;25.314;2023-02-12T06:14:19;97951.81;;;-3.50;72.89
42771;BME280;28426;42.872;25.314;2023-02-12T06:16:51;97960.66;;;-3.35;72.76
42771;BME280;28426;42.872;25.314;2023-02-12T06:19:21;97948.75;;;-3.23;71.61
42771;BME280;28426;42.872;25.314;2023-02-12T06:21:52;97945.19;;;-3.22;71.88
42771;BME280;28426;42.872;25.314;2023-02-12T06:24:26;97950.75;;;-3.29;71.71
42771;BME280;28426;42.872;25.314;2023-02-12T06:26:56;97950.09;;;-3.16;72.04
42771;BME280;28426;42.872;25.314;2023-02-12T06:29:27;97952.09;;;-3.04;72.36
42771;BME280;28426;42.872;25.314;2023-02-12T06:31:57;97959.19;;;-3.06;72.57
42771;BME280;28426;42.872;25.314;2023-02-12T06:34:28;97964.88;;;-3.15;73.34
42771;BME280;28426;42.872;25.314;2023-02-12T06:36:59;97977.59;;;-3.26;73.19
42771;BME280;28426;42.872;25.314;2023-02-12T06:39:32;97977.97;;;-3.34;73.29
42771;BME280;28426;42.872;25.314;2023-02-12T06:42:03;97976.38;;;-3.37;72.90
42771;BME280;28426;42.872;25.314;2023-02-12T06:44:33;97976.38;;;-3.37;73.75
42771;BME280;28426;42.872;25.314;2023-02-12T06:47:04;97981.59;;;-3.37;74.26
42771;BME280;28426;42.872;25.314;2023-02-12T06:49:34;97985.03;;;-3.36;73.59
42771;BME280;28426;42.872;25.314;2023-02-12T06:52:05;97984.97;;;-3.35;73.03
42771;BME280;28426;42.872;25.314;2023-02-12T06:54:39;97978.84;;;-3.34;73.48
42771;BME280;28426;42.872;25.314;2023-02-12T06:57:10;97983.13;;;-3.33;75.07
42771;BME280;28426;42.872;25.314;2023-02-12T06:59:40;97980.53;;;-3.33;75.98
42771;BME280;28426;42.872;25.314;2023-02-12T07:02:11;97991.91;;;-3.34;74.30
42771;BME280;28426;42.872;25.314;2023-02-12T07:04:41;97991.91;;;-3.34;73.65
42771;BME280;28426;42.872;25.314;2023-02-12T07:07:12;97991.91;;;-3.34;76.90
42771;BME280;28426;42.872;25.314;2023-02-12T07:09:45;97999.63;;;-3.32;76.63
42771;BME280;28426;42.872;25.314;2023-02-12T07:12:16;98004.78;;;-3.31;74.36
42771;BME280;28426;42.872;25.314;2023-02-12T07:14:47;97998.47;;;-3.26;75.61
42771;BME280;28426;42.872;25.314;2023-02-12T07:17:17;98000.94;;;-3.23;75.98
42771;BME280;28426;42.872;25.314;2023-02-12T07:19:48;97997.81;;;-3.12;77.42
42771;BME280;28426;42.872;25.314;2023-02-12T07:22:18;98003.84;;;-2.94;74.92
42771;BME280;28426;42.872;25.314;2023-02-12T07:24:52;98004.69;;;-2.76;75.49
42771;BME280;28426;42.872;25.314;2023-02-12T07:27:23;98002.75;;;-2.72;75.42
42771;BME280;28426;42.872;25.314;2023-02-12T07:29:53;98000.75;;;-2.67;77.79
42771;BME280;28426;42.872;25.314;2023-02-12T07:32:24;98013.94;;;-2.53;77.29
42771;BME280;28426;42.872;25.314;2023-02-12T07:34:54;98004.47;;;-2.38;74.47
42771;BME280;28426;42.872;25.314;2023-02-12T07:37:25;98007.78;;;-2.34;74.86
42771;BME280;28426;42.872;25.314;2023-02-12T07:39:58;98012.31;;;-2.38;73.82
42771;BME280;28426;42.872;25.314;2023-02-12T07:42:29;98014.25;;;-2.41;72.20
42771;BME280;28426;42.872;25.314;2023-02-12T07:45:05;98016.00;;;-2.42;72.00
42771;BME280;28426;42.872;25.314;2023-02-12T07:47:36;98021.94;;;-2.38;70.63
42771;BME280;28426;42.872;25.314;2023-02-12T07:50:08;98011.28;;;-2.35;71.36
42771;BME280;28426;42.872;25.314;2023-02-12T07:52:39;98021.25;;;-2.26;71.06
42771;BME280;28426;42.872;25.314;2023-02-12T07:55:12;98019.09;;;-2.17;70.27
42771;BME280;28426;42.872;25.314;2023-02-12T07:57:43;98016.75;;;-2.06;68.64
42771;BME280;28426;42.872;25.314;2023-02-12T08:00:15;98012.69;;;-1.95;68.89
42771;BME280;28426;42.872;25.314;2023-02-12T08:02:50;98018.44;;;-1.89;69.19
42771;BME280;28426;42.872;25.314;2023-02-12T08:05:21;98017.28;;;-1.83;68.17
42771;BME280;28426;42.872;25.314;2023-02-12T08:07:51;98024.69;;;-1.59;69.14
42771;BME280;28426;42.872;25.314;2023-02-12T08:10:25;98031.25;;;-1.36;67.87
42771;BME280;28426;42.872;25.314;2023-02-12T08:12:58;98023.72;;;-1.26;66.38
42771;BME280;28426;42.872;25.314;2023-02-12T08:15:29;98029.72;;;-1.24;65.87
42771;BME280;28426;42.872;25.314;2023-02-12T08:17:59;98023.53;;;-1.23;66.04
42771;BME280;28426;42.872;25.314;2023-02-12T08:20:32;98017.38;;;-1.22;65.91
42771;BME280;28426;42.872;25.314;2023-02-12T08:23:03;98024.13;;;-1.17;65.30
42771;BME280;28426;42.872;25.314;2023-02-12T08:25:36;98032.78;;;-1.01;66.73
42771;BME280;28426;42.872;25.314;2023-02-12T08:28:07;98029.09;;;-0.82;66.71
42771;BME280;28426;42.872;25.314;2023-02-12T08:30:39;98032.97;;;-0.73;65.93
42771;BME280;28426;42.872;25.314;2023-02-12T08:33:09;98042.59;;;-0.74;65.70
42771;BME280;28426;42.872;25.314;2023-02-12T08:35:40;98046.31;;;-0.78;65.34
42771;BME280;28426;42.872;25.314;2023-02-12T08:38:10;98052.50;;;-0.79;65.11
42771;BME280;28426;42.872;25.314;2023-02-12T08:40:44;98051.38;;;-0.75;64.37
42771;BME280;28426;42.872;25.314;2023-02-12T08:43:15;98061.91;;;-0.60;64.35
42771;BME280;28426;42.872;25.314;2023-02-12T08:45:45;98059.13;;;-0.43;64.96
42771;BME280;28426;42.872;25.314;2023-02-12T08:48:16;98061.84;;;-0.30;64.37
42771;BME280;28426;42.872;25.314;2023-02-12T08:50:46;98060.84;;;-0.27;63.52
42771;BME280;28426;42.872;25.314;2023-02-12T08:53:17;98058.38;;;-0.30;63.58
42771;BME280;28426;42.872;25.314;2023-02-12T08:55:50;98064.66;;;-0.33;63.70
42771;BME280;28426;42.872;25.314;2023-02-12T08:58:22;98062.78;;;-0.31;63.11
42771;BME280;28426;42.872;25.314;2023-02-12T09:00:53;98061.47;;;-0.23;62.75
42771;BME280;28426;42.872;25.314;2023-02-12T09:03:24;98067.84;;;0.02;64.26
42771;BME280;28426;42.872;25.314;2023-02-12T09:05:55;98062.69;;;0.29;62.65
42771;BME280;28426;42.872;25.314;2023-02-12T09:08:25;98059.56;;;0.37;60.69
42771;BME280;28426;42.872;25.314;2023-02-12T09:10:59;98063.00;;;0.52;61.94
42771;BME280;28426;42.872;25.314;2023-02-12T09:13:29;98070.47;;;0.73;60.93
42771;BME280;28426;42.872;25.314;2023-02-12T09:16:01;98069.66;;;0.85;59.82
42771;BME280;28426;42.872;25.314;2023-02-12T09:18:32;98066.19;;;0.85;59.24
42771;BME280;28426;42.872;25.314;2023-02-12T09:21:05;98066.88;;;0.74;59.00
42771;BME280;28426;42.872;25.314;2023-02-12T09:23:36;98069.88;;;0.68;59.17
42771;BME280;28426;42.872;25.314;2023-02-12T09:26:12;98066.53;;;0.65;59.72
42771;BME280;28426;42.872;25.314;2023-02-12T09:28:43;98058.75;;;0.64;60.57
42771;BME280;28426;42.872;25.314;2023-02-12T09:31:15;98066.47;;;0.80;60.49
42771;BME280;28426;42.872;25.314;2023-02-12T09:33:47;98061.81;;;0.98;59.19
42771;BME280;28426;42.872;25.314;2023-02-12T09:36:21;98063.00;;;1.07;59.29
42771;BME280;28426;42.872;25.314;2023-02-12T09:38:52;98063.22;;;1.04;59.05
42771;BME280;28426;42.872;25.314;2023-02-12T09:41:39;98071.56;;;0.96;58.40
42771;BME280;28426;42.872;25.314;2023-02-12T09:44:19;98087.25;;;0.98;58.22
42771;BME280;28426;42.872;25.314;2023-02-12T09:46:54;98077.09;;;1.19;59.55
42771;BME280;28426;42.872;25.314;2023-02-12T09:49:43;98072.22;;;1.40;57.80
42771;BME280;28426;42.872;25.314;2023-02-12T09:52:18;98070.22;;;1.44;57.55
42771;BME280;28426;42.872;25.314;2023-02-12T09:54:49;98080.75;;;1.44;57.87
42771;BME280;28426;42.872;25.314;2023-02-12T09:57:25;98079.06;;;1.43;57.60
42771;BME280;28426;42.872;25.314;2023-02-12T10:00:03;98086.00;;;1.57;57.44
42771;BME280;28426;42.872;25.314;2023-02-12T10:02:35;98076.03;;;1.75;57.46
42771;BME280;28426;42.872;25.314;2023-02-12T10:05:14;98081.63;;;1.83;56.96
42771;BME280;28426;42.872;25.314;2023-02-12T10:08:00;98073.81;;;1.82;56.59
42771;BME280;28426;42.872;25.314;2023-02-12T10:10:51;98080.78;;;1.83;56.45
42771;BME280;28426;42.872;25.314;2023-02-12T10:13:38;98072.03;;;1.95;56.54
42771;BME280;28426;42.872;25.314;2023-02-12T10:16:30;98073.06;;;2.19;55.87
42771;BME280;28426;42.872;25.314;2023-02-12T10:19:16;98079.78;;;2.23;54.36
42771;BME280;28426;42.872;25.314;2023-02-12T10:21:58;98091.59;;;2.17;53.99
42771;BME280;28426;42.872;25.314;2023-02-12T10:25:01;98087.81;;;2.21;54.26
42771;BME280;28426;42.872;25.314;2023-02-12T10:27:39;98077.75;;;2.40;55.50
42771;BME280;28426;42.872;25.314;2023-02-12T10:30:19;98083.00;;;2.53;54.62
42771;BME280;28426;42.872;25.314;2023-02-12T10:32:53;98096.28;;;2.51;54.23
42771;BME280;28426;42.872;25.314;2023-02-12T10:35:28;98101.16;;;2.44;53.99
42771;BME280;28426;42.872;25.314;2023-02-12T10:38:02;98106.19;;;2.47;54.29
42771;BME280;28426;42.872;25.314;2023-02-12T10:40:35;98109.22;;;2.67;54.58
42771;BME280;28426;42.872;25.314;2023-02-12T10:43:05;98110.94;;;2.80;53.72
42771;BME280;28426;42.872;25.314;2023-02-12T10:45:40;98112.34;;;2.72;53.32
42771;BME280;28426;42.872;25.314;2023-02-12T10:48:14;98119.97;;;2.64;53.91
42771;BME280;28426;42.872;25.314;2023-02-12T10:50:54;98123.41;;;2.78;54.67
42771;BME280;28426;42.872;25.314;2023-02-12T10:53:31;98119.31;;;2.98;53.28
42771;BME280;28426;42.872;25.314;2023-02-12T10:56:23;98122.25;;;3.06;52.54
42771;BME280;28426;42.872;25.314;2023-02-12T10:58:55;98123.44;;;3.02;52.39
42771;BME280;28426;42.872;25.314;2023-02-12T11:01:32;98121.56;;;2.91;53.28
42771;BME280;28426;42.872;25.314;2023-02-12T11:04:19;98134.09;;;3.00;53.54
42771;BME280;28426;42.872;25.314;2023-02-12T11:06:57;98136.53;;;3.15;52.80
42771;BME280;28426;42.872;25.314;2023-02-12T11:09:29;98138.88;;;3.20;52.72
42771;BME280;28426;42.872;25.314;2023-02-12T11:12:01;98136.66;;;3.13;52.21
42771;BME280;28426;42.872;25.314;2023-02-12T11:14:33;98143.13;;;3.09;52.35
42771;BME280;28426;42.872;25.314;2023-02-12T11:17:13;98131.34;;;3.26;53.15
42771;BME280;28426;42.872;25.314;2023-02-12T11:20:01;98138.97;;;3.43;52.80
42771;BME280;28426;42.872;25.314;2023-02-12T11:22:32;98137.19;;;3.43;51.62
42771;BME280;28426;42.872;25.314;2023-02-12T11:25:13;98140.47;;;3.34;51.21
42771;BME280;28426;42.872;25.314;2023-02-12T11:27:58;98134.94;;;3.25;50.88
42771;BME280;28426;42.872;25.314;2023-02-12T11:30:29;98131.16;;;3.41;51.59
42771;BME280;28426;42.872;25.314;2023-02-12T11:33:25;98134.94;;;3.61;51.29
42771;BME280;28426;42.872;25.314;2023-02-12T11:35:58;98135.91;;;3.60;51.31
42771;BME280;28426;42.872;25.314;2023-02-12T11:38:35;98146.63;;;3.70;52.90
42771;BME280;28426;42.872;25.314;2023-02-12T11:41:20;98147.38;;;3.84;51.84
42771;BME280;28426;42.872;25.314;2023-02-12T11:43:53;98145.19;;;3.77;50.65
42771;BME280;28426;42.872;25.314;2023-02-12T11:46:25;98150.13;;;3.46;49.45
42771;BME280;28426;42.872;25.314;2023-02-12T11:49:00;98152.72;;;3.35;50.73
42771;BME280;28426;42.872;25.314;2023-02-12T11:51:31;98152.16;;;3.18;51.24
42771;BME280;28426;42.872;25.314;2023-02-12T11:54:03;98151.31;;;3.18;52.53
42771;BME280;28426;42.872;25.314;2023-02-12T11:56:45;98154.97;;;3.28;52.18
42771;BME280;28426;42.872;25.314;2023-02-12T11:59:33;98150.75;;;3.25;51.94
42771;BME280;28426;42.872;25.314;2023-02-12T12:02:23;98154.41;;;3.11;52.12
42771;BME280;28426;42.872;25.314;2023-02-12T12:05:04;98160.63;;;3.10;52.58
42771;BME280;28426;42.872;25.314;2023-02-12T12:07:38;98159.75;;;3.23;52.66
42771;BME280;28426;42.872;25.314;2023-02-12T12:10:14;98160.69;;;3.22;52.31
42771;BME280;28426;42.872;25.314;2023-02-12T12:12:49;98162.31;;;3.11;52.81
42771;BME280;28426;42.872;25.314;2023-02-12T12:15:24;98166.91;;;2.96;53.39
42771;BME280;28426;42.872;25.314;2023-02-12T12:18:16;98168.31;;;2.89;53.03
42771;BME280;28426;42.872;25.314;2023-02-12T12:21:10;98176.78;;;3.06;53.56
42771;BME280;28426;42.872;25.314;2023-02-12T12:23:49;98171.34;;;3.20;53.05
42771;BME280;28426;42.872;25.314;2023-02-12T12:26:23;98172.28;;;3.19;52.47
42771;BME280;28426;42.872;25.314;2023-02-12T12:29:00;98173.72;;;3.12;52.75
42771;BME280;28426;42.872;25.314;2023-02-12T12:31:37;98166.97;;;3.08;53.38
42771;BME280;28426;42.872;25.314;2023-02-12T12:34:10;98176.47;;;2.97;53.56
42771;BME280;28426;42.872;25.314;2023-02-12T12:37:13;98176.78;;;3.06;54.06
42771;BME280;28426;42.872;25.314;2023-02-12T12:40:01;98170.81;;;3.28;53.69
42771;BME280;28426;42.872;25.314;2023-02-12T12:42:54;98170.69;;;3.30;54.59
42771;BME280;28426;42.872;25.314;2023-02-12T12:45:46;98169.00;;;3.29;53.11
42771;BME280;28426;42.872;25.314;2023-02-12T12:48:34;98163.22;;;3.23;53.55
42771;BME280;28426;42.872;25.314;2023-02-12T12:51:17;98163.97;;;3.25;54.07
42771;BME280;28426;42.872;25.314;2023-02-12T12:54:06;98166.19;;;3.43;53.52
42771;BME280;28426;42.872;25.314;2023-02-12T12:56:50;98172.19;;;3.45;52.95
42771;BME280;28426;42.872;25.314;2023-02-12T12:59:46;98168.16;;;3.28;53.56
42771;BME280;28426;42.872;25.314;2023-02-12T13:02:50;98161.69;;;3.08;54.06
42771;BME280;28426;42.872;25.314;2023-02-12T13:11:35;98179.88;;;2.99;54.45
42771;BME280;28426;42.872;25.314;2023-02-12T13:14:23;98178.25;;;2.72;54.69
42771;BME280;28426;42.872;25.314;2023-02-12T13:17:03;98188.28;;;2.67;53.88
42771;BME280;28426;42.872;25.314;2023-02-12T13:19:46;98182.69;;;2.59;54.04
42771;BME280;28426;42.872;25.314;2023-02-12T13:22:22;98190.69;;;2.70;54.02
42771;BME280;28426;42.872;25.314;2023-02-12T13:25:00;98201.13;;;2.72;53.93
42771;BME280;28426;42.872;25.314;2023-02-12T13:27:39;98193.25;;;2.59;54.00
42771;BME280;28426;42.872;25.314;2023-02-12T13:30:19;98206.53;;;2.44;54.77
42771;BME280;28426;42.872;25.314;2023-02-12T13:33:00;98205.03;;;2.27;55.24
42771;BME280;28426;42.872;25.314;2023-02-12T13:35:38;98215.19;;;2.33;55.81
42771;BME280;28426;42.872;25.314;2023-02-12T13:38:16;98226.75;;;2.44;55.12
42771;BME280;28426;42.872;25.314;2023-02-12T13:40:49;98222.34;;;2.44;54.49
42771;BME280;28426;42.872;25.314;2023-02-12T13:43:42;98221.50;;;2.31;54.43